Latest Weather Observations for Bathurst Airport

IDN60801

Issued at 11:03 am EST Wednesday 25 May 2016 (issued every 30 minutes, with the page automatically refreshed every 10 minutes)

About weather observations | Map of weather stations | Latest weather observations for NSW | Other Formats
Station Details ID: 063291 Name: BATHURST AIRPORT AWS Lat: -33.41 Lon: 149.65 Height: 744.5 m
Data from the previous 72 hours. | See also: Recent months at Bathurst Airport
Date/Time
EST
Temp
°C
App
Temp
°C
Dew
Point
Rel
Hum
%
Delta-T
°C
Wind Press
QNH
hPa
Press
MSL
hPa
Rain
since 9 am
mm
Dir
 
Spd
km/h
Gust
km/h
Spd
kts
Gust
kts
25/11:00am 10.1 7.5 4.0 66 2.8 NW 7 11 4 6 1018.7 1018.6 0.0
25/10:30am 9.9 7.7 5.3 73 2.2 N 6 11 3 6 1019.0 1018.8 0.0
25/10:00am 9.2 7.8 5.4 77 1.8 WNW 2 7 1 4 1019.4 1019.2 0.0
25/09:30am 7.7 6.6 5.2 84 1.2 CALM 0 0 0 0 1020.0 1019.9 0.0
25/09:21am 6.7 5.7 5.8 94 0.4 CALM 0 0 0 0 1020.1 1020.0 0.0
25/09:00am 4.1 2.4 4.0 99 0.0 SW 2 7 1 4 1020.5 1020.3 0.2
25/08:30am 3.0 0.2 2.9 99 0.0 SW 7 11 4 6 1020.4 1020.2 0.2
25/08:22am 2.6 -0.3 2.5 99 0.0 SW 7 9 4 5 1020.1 1020.0 0.2
25/08:00am 1.9 -0.9 1.8 99 0.0 WNW 6 9 3 5 1019.9 1019.8 0.2
25/07:51am 3.1 -0.1 3.0 99 0.0 SE 9 13 5 7 1019.8 1019.7 0.0
25/07:30am -0.2 -3.9 -0.3 99 0.0 E 9 11 5 6 1019.8 1019.7 0.0
25/07:20am -0.4 -4.5 -0.5 99 0.0 ENE 11 13 6 7 1019.8 1019.7 0.0
25/07:17am -0.3 -3.7 -0.4 99 0.0 E 7 13 4 7 1019.8 1019.7 0.0
25/07:00am -1.2 -3.4 -1.3 99 0.0 CALM 0 6 0 3 1019.9 1019.8 0.0
25/06:41am -1.1 -4.6 -1.2 99 0.0 SW 7 9 4 5 1019.8 1019.7 0.0
25/06:30am 0.0 -3.3 -0.1 99 0.0 SW 7 9 4 5 1019.6 1019.4 0.0
25/06:00am 1.8 -1.6 1.7 99 0.0 ESE 9 11 5 6 1018.9 1018.7 0.0
25/05:30am 2.9 -0.3 2.8 99 0.0 ENE 9 11 5 6 1018.7 1018.6 0.0
25/05:00am 1.7 -1.2 1.6 99 0.0 NNE 6 7 3 4 1019.0 1018.8 0.0
25/04:30am 2.8 1.1 2.1 95 0.3 CALM 0 6 0 3 1019.1 1018.9 0.0
25/04:28am 3.0 1.3 2.1 94 0.4 CALM 0 6 0 3 1019.2 1019.0 0.0
25/04:09am 4.4 2.4 4.3 99 0.0 NE 4 7 2 4 1019.4 1019.2 0.0
25/04:00am 3.6 0.9 3.5 99 0.0 NE 7 9 4 5 1019.3 1019.1 0.0
25/03:30am 2.4 -0.9 2.3 99 0.0 NE 9 11 5 6 1019.4 1019.2 0.0
25/03:00am 2.7 -0.6 2.6 99 0.0 NE 9 13 5 7 1019.6 1019.4 0.0
25/02:30am 1.9 -1.1 1.8 99 0.0 NNE 7 9 4 5 1019.6 1019.4 0.0
25/02:00am 3.9 0.8 3.8 99 0.0 NE 9 9 5 5 1019.8 1019.7 0.0
25/01:30am 3.1 0.2 2.5 96 0.3 NE 7 9 4 5 1020.1 1020.0 0.0
25/01:00am 3.7 0.9 3.4 98 0.1 NE 7 9 4 5 1020.2 1020.1 0.0
25/12:30am 2.9 -0.4 2.3 96 0.2 ENE 9 13 5 7 1020.5 1020.3 0.0
25/12:00am 3.7 0.6 3.4 98 0.1 NE 9 11 5 6 1020.8 1020.6 0.0
 
Date/Time
EST
Temp
°C
App
Temp
°C
Dew
Point
Rel
Hum
%
Delta-T
°C
Wind Press
QNH
hPa
Press
MSL
hPa
Rain
since 9 am
mm
Dir
 
Spd
km/h
Gust
km/h
Spd
kts
Gust
kts
24/11:30pm 4.5 1.9 4.4 99 0.0 NNE 7 7 4 4 1021.0 1020.9 0.0
24/11:00pm 3.4 1.1 2.8 96 0.3 NNE 4 7 2 4 1021.0 1020.9 0.0
24/10:30pm 3.6 0.9 2.9 95 0.3 N 6 9 3 5 1021.1 1021.0 0.0
24/10:00pm 5.1 3.7 3.4 89 0.7 CALM 0 0 0 0 1021.2 1021.1 0.0
24/09:30pm 6.0 4.3 4.0 87 0.9 SSW 2 7 1 4 1021.3 1021.2 0.0
24/09:00pm 6.4 5.2 4.4 87 0.9 CALM 0 6 0 3 1021.4 1021.3 0.0
24/08:30pm 6.5 5.2 4.0 84 1.1 CALM 0 0 0 0 1021.3 1021.2 0.0
24/08:00pm 6.3 5.0 4.0 85 1.0 CALM 0 0 0 0 1021.0 1020.9 0.0
24/07:30pm 6.7 5.4 3.9 82 1.3 CALM 0 4 0 2 1020.8 1020.6 0.0
24/07:00pm 7.1 5.8 3.9 80 1.4 CALM 0 6 0 3 1020.5 1020.3 0.0
24/06:30pm 7.3 5.6 3.9 79 1.5 WNW 2 7 1 4 1020.5 1020.3 0.0
24/06:00pm 7.5 4.0 3.4 75 1.8 W 11 13 6 7 1020.1 1020.0 0.0
24/05:30pm 7.7 4.9 3.2 73 2.0 WSW 7 17 4 9 1020.0 1019.9 0.0
24/05:00pm 8.8 4.1 3.2 68 2.5 WSW 17 24 9 13 1019.6 1019.4 0.0
24/04:30pm 9.8 4.5 3.1 63 3.0 WSW 20 26 11 14 1019.5 1019.3 0.0
24/04:00pm 10.5 4.9 3.3 61 3.3 WSW 22 28 12 15 1019.3 1019.1 0.0
24/03:30pm 11.1 5.5 3.2 58 3.6 WSW 22 30 12 16 1019.3 1019.1 0.0
24/03:00pm 11.4 5.2 2.4 54 4.0 WSW 24 33 13 18 1019.1 1018.9 0.0
24/02:30pm 11.4 4.4 2.2 53 4.1 W 28 35 15 19 1018.9 1018.7 0.0
24/02:00pm 11.8 5.6 2.3 52 4.3 WSW 24 32 13 17 1018.9 1018.7 0.0
24/01:30pm 11.4 4.8 2.2 53 4.1 WSW 26 37 14 20 1019.0 1018.8 0.0
24/01:00pm 11.1 4.9 1.9 53 4.1 WSW 24 32 13 17 1019.1 1018.9 0.0
24/12:30pm 11.5 4.9 2.0 52 4.2 WSW 26 35 14 19 1019.6 1019.4 0.0
24/12:00pm 11.2 4.9 1.7 52 4.2 WSW 24 32 13 17 1019.7 1019.6 0.0
24/11:30am 10.5 5.3 3.5 62 3.2 WSW 20 28 11 15 1020.4 1020.2 0.0
24/11:00am 10.2 5.0 3.5 63 3.1 WSW 20 30 11 16 1020.9 1020.8 0.0
24/10:30am 9.4 4.1 3.2 65 2.8 WSW 20 28 11 15 1021.4 1021.3 0.0
24/10:00am 9.4 4.4 3.6 67 2.6 WSW 19 24 10 13 1021.4 1021.3 0.0
24/09:30am 8.4 3.9 4.0 74 2.0 WSW 17 22 9 12 1021.4 1021.3 0.0
24/09:07am 7.9 3.4 4.1 77 1.7 WSW 17 24 9 13 1021.6 1021.5 0.0
24/09:00am 7.4 2.5 4.2 80 1.4 WSW 19 26 10 14 1021.6 1021.5 0.0
24/08:30am 7.7 4.2 5.3 85 1.1 WSW 13 19 7 10 1021.5 1021.4 0.0
24/08:11am 7.1 3.9 4.9 86 1.0 WSW 11 15 6 8 1021.4 1021.3 0.0
24/08:00am 6.8 4.0 5.0 88 0.8 WSW 9 13 5 7 1021.3 1021.2 0.0
24/07:30am 4.8 3.4 3.3 90 0.6 CALM 0 0 0 0 1021.1 1021.0 0.0
24/07:00am 4.6 3.2 3.4 92 0.5 CALM 0 0 0 0 1020.6 1020.4 0.0
24/06:30am 3.3 0.6 2.6 95 0.3 NE 6 9 3 5 1020.4 1020.2 0.0
24/06:00am 3.0 0.0 2.1 94 0.4 NNE 7 9 4 5 1020.0 1019.9 0.0
24/05:30am 3.1 -0.3 2.1 93 0.4 NE 9 11 5 6 1020.1 1020.0 0.0
24/05:00am 3.1 0.1 2.1 93 0.4 NE 7 9 4 5 1020.2 1020.1 0.0
24/04:30am 3.0 -0.4 2.1 94 0.4 ENE 9 11 5 6 1020.5 1020.3 0.0
24/04:00am 2.8 -0.2 2.1 95 0.3 NNE 7 9 4 5 1020.6 1020.4 0.0
24/03:30am 2.2 -0.9 1.6 96 0.2 NE 7 9 4 5 1020.8 1020.6 0.0
24/03:00am 3.1 0.3 2.2 94 0.4 NNW 6 9 3 5 1021.0 1020.9 0.0
24/02:30am 3.6 2.0 2.6 93 0.4 CALM 0 0 0 0 1021.1 1021.0 0.0
24/02:00am 3.6 1.2 2.4 92 0.5 N 4 6 2 3 1021.0 1020.9 0.0
24/01:30am 3.0 0.0 1.7 91 0.5 N 7 9 4 5 1021.2 1021.1 0.0
24/01:00am 4.7 2.8 2.9 88 0.8 W 2 7 1 4 1021.2 1021.1 0.0
24/12:30am 4.0 1.0 2.2 88 0.8 NNE 7 9 4 5 1021.4 1021.3 0.0
24/12:00am 4.2 0.4 1.6 83 1.1 WSW 11 17 6 9 1021.4 1021.3 0.0
 
Date/Time
EST
Temp
°C
App
Temp
°C
Dew
Point
Rel
Hum
%
Delta-T
°C
Wind Press
QNH
hPa
Press
MSL
hPa
Rain
since 9 am
mm
Dir
 
Spd
km/h
Gust
km/h
Spd
kts
Gust
kts
23/11:30pm 5.6 1.2 2.9 83 1.2 WSW 15 20 8 11 1021.5 1021.4 0.0
23/11:00pm 5.0 0.9 2.4 83 1.1 WSW 13 15 7 8 1021.6 1021.5 0.0
23/10:30pm 4.4 0.5 1.4 81 1.2 W 11 13 6 7 1021.6 1021.5 0.0
23/10:00pm 4.1 -0.2 1.3 82 1.1 W 13 15 7 8 1021.3 1021.2 0.0
23/09:30pm 4.9 1.0 1.0 76 1.6 W 11 13 6 7 1021.2 1021.1 0.0
23/09:00pm 5.8 1.2 1.5 74 1.8 WSW 15 19 8 10 1021.1 1021.0 0.0
23/08:30pm 6.5 1.9 1.6 71 2.1 WSW 15 19 8 10 1020.8 1020.6 0.0
23/08:00pm 6.4 2.1 1.1 69 2.2 WSW 13 17 7 9 1020.9 1020.8 0.0
23/07:30pm 7.1 2.4 1.2 66 2.5 WSW 15 20 8 11 1020.9 1020.8 0.0
23/07:00pm 6.4 2.1 0.7 67 2.3 SW 13 13 7 7 1020.6 1020.4 0.0
23/06:30pm 7.7 2.6 0.9 62 2.9 SW 17 24 9 13 1020.1 1020.0 0.0
23/06:00pm 8.9 3.3 0.9 57 3.4 WSW 20 26 11 14 1019.8 1019.7 0.0
23/05:30pm 9.7 4.1 0.9 54 3.8 WSW 20 28 11 15 1019.2 1019.0 0.0
23/05:00pm 10.6 2.9 0.1 48 4.4 WSW 30 43 16 23 1019.0 1018.8 0.0
23/04:30pm 11.8 3.6 0.6 46 4.9 WSW 33 43 18 23 1018.5 1018.4 0.0
23/04:00pm 12.7 5.6 1.4 46 5.0 SW 28 35 15 19 1018.5 1018.4 0.0
23/03:30pm 13.5 6.4 1.5 44 5.4 W 28 43 15 23 1018.3 1018.1 0.0
23/03:00pm 13.9 7.2 3.7 50 4.8 WSW 28 39 15 21 1018.2 1018.0 0.0
23/02:30pm 14.3 7.9 5.1 54 4.5 WSW 28 39 15 21 1018.2 1018.0 0.0
23/02:00pm 13.8 5.5 4.4 53 4.5 WSW 37 46 20 25 1018.2 1018.0 0.0
23/01:30pm 13.6 7.8 6.2 61 3.7 WSW 26 39 14 21 1018.4 1018.2 0.0
23/01:00pm 13.3 6.1 5.0 57 4.0 WSW 32 43 17 23 1018.6 1018.5 0.0
23/12:49pm 14.0 7.0 4.0 51 4.8 WSW 30 39 16 21 1018.7 1018.6 0.0
23/12:30pm 14.4 10.4 5.0 53 4.6 W 15 20 8 11 1018.6 1018.5 0.0
23/12:12pm 12.0 6.7 5.0 62 3.4 WSW 22 41 12 22 1019.0 1018.8 0.0
23/12:00pm 11.9 4.6 4.6 61 3.5 WSW 32 43 17 23 1019.3 1019.1 0.0
23/11:30am 13.2 6.8 10.6 84 1.4 WSW 35 44 19 24 1018.9 1018.7 0.0
23/11:25am 13.3 6.1 10.5 83 1.5 WSW 39 50 21 27 1019.0 1018.8 0.0
23/11:00am 15.3 8.6 9.7 69 3.0 W 35 44 19 24 1018.7 1018.6 0.0
23/10:30am 17.6 12.4 10.2 62 4.1 WNW 28 33 15 18 1018.5 1018.4 0.0
23/10:00am 16.9 11.8 10.5 66 3.5 WNW 28 39 15 21 1018.4 1018.2 0.0
23/09:30am 16.0 10.9 10.7 71 2.9 WNW 28 35 15 19 1018.4 1018.2 0.0
23/09:00am 15.6 10.7 11.2 75 2.4 NW 28 35 15 19 1018.9 1018.7 0.0
23/08:30am 13.0 10.5 11.2 89 1.0 N 15 17 8 9 1019.1 1018.9 0.0
23/08:00am 13.1 11.4 11.3 89 1.0 NNE 11 15 6 8 1019.1 1018.9 0.0
23/07:30am 12.6 10.7 11.7 94 0.5 N 13 15 7 8 1019.3 1019.1 0.0
23/07:00am 9.1 6.4 9.1 100 0.0 N 13 15 7 8 1019.2 1019.0 0.0
23/06:30am 8.5 5.3 8.4 99 0.1 N 15 17 8 9 1019.0 1018.8 0.0
23/06:00am 9.5 7.3 9.4 99 0.1 NNE 11 11 6 6 1019.2 1019.0 0.0
23/05:30am 10.2 8.6 10.1 99 0.1 NNE 9 15 5 8 1019.2 1019.0 0.0
23/05:00am 9.5 8.6 9.4 99 0.1 NNW 4 9 2 5 1019.6 1019.4 0.0
23/04:30am 10.0 7.6 9.9 99 0.1 NNE 13 15 7 8 1019.1 1018.9 0.0
23/04:00am 10.0 7.9 9.9 99 0.1 N 11 13 6 7 1019.4 1019.2 0.0
23/03:30am 10.0 7.9 9.9 99 0.1 NNE 11 11 6 6 1019.5 1019.3 0.0
23/03:00am 10.0 8.3 10.0 100 0.0 NNE 9 11 5 6 1019.9 1019.8 0.0
23/02:30am 9.9 8.8 9.9 100 0.0 NNE 6 7 3 4 1020.2 1020.1 0.0
23/02:00am 9.6 7.4 9.5 99 0.1 NNE 11 13 6 7 1020.4 1020.2 0.0
23/01:30am 9.8 9.8 9.7 99 0.1 CALM 0 6 0 3 1020.6 1020.4 0.0
23/01:00am 11.2 11.5 11.0 99 0.1 CALM 0 0 0 0 1020.7 1020.5 0.0
23/12:30am 11.1 11.3 10.6 97 0.3 CALM 0 0 0 0 1020.9 1020.8 0.0
23/12:00am 11.1 11.4 10.9 99 0.1 CALM 0 0 0 0 1021.2 1021.1 0.0
 
Date/Time
EST
Temp
°C
App
Temp
°C
Dew
Point
Rel
Hum
%
Delta-T
°C
Wind Press
QNH
hPa
Press
MSL
hPa
Rain
since 9 am
mm
Dir
 
Spd
km/h
Gust
km/h
Spd
kts
Gust
kts
22/11:30pm 11.3 11.6 11.0 98 0.2 CALM 0 0 0 0 1021.4 1021.3 0.0
22/11:00pm 11.2 10.2 10.9 98 0.2 NNE 7 9 4 5 1021.4 1021.3 0.0
22/10:30pm 11.0 9.8 10.2 95 0.4 N 7 9 4 5 1021.5 1021.4 0.0
22/10:00pm 11.4 9.8 10.3 93 0.6 NNE 9 9 5 5 1021.8 1021.6 0.0
22/09:30pm 11.4 9.8 10.3 93 0.6 NE 9 11 5 6 1022.2 1022.1 0.0
22/09:00pm 11.3 9.8 10.4 94 0.5 NNE 9 11 5 6 1022.3 1022.2 0.0
22/08:30pm 11.2 9.7 9.3 88 1.0 N 7 11 4 6 1022.6 1022.5 0.0
22/08:00pm 12.1 10.1 10.0 87 1.1 NE 11 11 6 6 1022.5 1022.4 0.0
22/07:30pm 12.6 10.6 10.0 84 1.4 NE 11 13 6 7 1022.5 1022.4 0.0
22/07:00pm 13.3 11.3 10.1 81 1.7 NE 11 13 6 7 1022.4 1022.3 0.0
22/06:30pm 13.9 12.2 9.9 77 2.1 NE 9 11 5 6 1022.4 1022.3 0.0
22/06:00pm 14.8 13.5 10.0 73 2.6 N 7 7 4 4 1022.4 1022.3 0.0
22/05:30pm 15.4 14.2 10.2 71 2.8 N 7 9 4 5 1021.9 1021.7 0.0
22/05:00pm 16.2 14.5 9.8 66 3.5 N 9 11 5 6 1021.9 1021.7 0.0
22/04:30pm 18.4 16.1 10.5 60 4.4 N 13 15 7 8 1022.0 1021.9 0.0
22/04:00pm 19.4 16.4 10.7 57 4.9 N 17 19 9 10 1022.2 1022.1 0.0
22/03:30pm 19.8 17.2 10.8 56 5.1 N 15 19 8 10 1022.6 1022.5 0.0
22/03:00pm 20.0 18.1 10.4 54 5.4 N 11 15 6 8 1022.6 1022.5 0.0
22/02:30pm 20.0 17.4 10.7 55 5.2 N 15 20 8 11 1022.7 1022.6 0.0
22/02:00pm 19.9 17.2 10.3 54 5.4 NNW 15 20 8 11 1023.0 1022.9 0.0
22/01:30pm 19.8 17.6 10.8 56 5.1 N 13 17 7 9 1023.1 1023.1 0.0
22/01:00pm 19.7 17.6 11.2 58 4.8 NW 13 20 7 11 1023.6 1023.5 0.0
22/12:30pm 18.8 16.6 10.9 60 4.4 NNW 13 17 7 9 1024.1 1024.0 0.0
22/12:00pm 18.2 16.1 11.0 63 4.0 NNW 13 19 7 10 1024.5 1024.5 0.0
22/11:30am 16.5 15.6 9.4 63 3.8 WNW 4 9 2 5 1025.1 1025.0 0.0

Other Formats:

Comma delimited format used in spreadsheet applications
http://www.bom.gov.au/fwo/IDN60801/IDN60801.94729.axf

JavaScript Object Notation format (JSON) in row-major order
http://www.bom.gov.au/fwo/IDN60801/IDN60801.94729.json